Steptoe, Nevada
Current Conditions -  °F | °C
As of 12:53 AM on Thursday 23 Oct 2014 (Local Time) from KELY Reporting Station
Clear Clear  
Wind Chill: 39°   Ceiling: Unl
Heat Index: 44°   Visibility: 10mi
Dew Point: 20°   Wind: 10mph
Humidity: 38%   Direction: 200°SSW
Pressure: 30.22"   Gusts: NA
Location:  39.4053°N, 114.775°W
Report Text: KELY 230753Z AUTO 20009KT 10SM CLR 07/M07 A3022 RMK AO2 SLP169 T00671067 402001033
Loading
Personal Weather Stations






























Interactive Weather Map
Tropical Storm Tracking
New forecast layout! Learn more

10-Day Weather Forecast

Advertisements
Track Severe Weather on mobile